sensor_id;sensor_type;location;lat;lon;timestamp;P1;durP1;ratioP1;P2;durP2;ratioP2
42478;SDS011;28110;47.080;9.476;2023-04-03T00:01:04;1.80;;;0.90;;
42478;SDS011;28110;47.080;9.476;2023-04-03T00:03:29;1.00;;;0.80;;
42478;SDS011;28110;47.080;9.476;2023-04-03T00:05:55;1.23;;;1.00;;
42478;SDS011;28110;47.080;9.476;2023-04-03T00:08:21;1.37;;;0.97;;
42478;SDS011;28110;47.080;9.476;2023-04-03T00:10:47;1.00;;;0.80;;
42478;SDS011;28110;47.080;9.476;2023-04-03T00:13:13;1.10;;;1.00;;
42478;SDS011;28110;47.080;9.476;2023-04-03T00:15:38;1.52;;;1.00;;
42478;SDS011;28110;47.080;9.476;2023-04-03T00:18:05;1.38;;;0.85;;
42478;SDS011;28110;47.080;9.476;2023-04-03T00:20:31;0.98;;;0.80;;
42478;SDS011;28110;47.080;9.476;2023-04-03T00:22:57;1.00;;;0.77;;
42478;SDS011;28110;47.080;9.476;2023-04-03T00:25:23;0.70;;;0.60;;
42478;SDS011;28110;47.080;9.476;2023-04-03T00:27:48;1.23;;;0.70;;
42478;SDS011;28110;47.080;9.476;2023-04-03T00:30:15;0.73;;;0.60;;
42478;SDS011;28110;47.080;9.476;2023-04-03T00:32:42;0.68;;;0.65;;
42478;SDS011;28110;47.080;9.476;2023-04-03T00:35:08;0.83;;;0.80;;
42478;SDS011;28110;47.080;9.476;2023-04-03T00:37:34;0.88;;;0.70;;
42478;SDS011;28110;47.080;9.476;2023-04-03T00:40:00;2.70;;;0.70;;
42478;SDS011;28110;47.080;9.476;2023-04-03T00:42:27;1.05;;;0.70;;
42478;SDS011;28110;47.080;9.476;2023-04-03T00:47:18;0.93;;;0.60;;
42478;SDS011;28110;47.080;9.476;2023-04-03T00:49:43;1.10;;;0.60;;
42478;SDS011;28110;47.080;9.476;2023-04-03T00:52:11;0.60;;;0.60;;
42478;SDS011;28110;47.080;9.476;2023-04-03T00:54:41;1.05;;;0.60;;
42478;SDS011;28110;47.080;9.476;2023-04-03T00:57:08;0.73;;;0.50;;
42478;SDS011;28110;47.080;9.476;2023-04-03T00:59:36;0.70;;;0.60;;
42478;SDS011;28110;47.080;9.476;2023-04-03T01:02:05;0.50;;;0.40;;
42478;SDS011;28110;47.080;9.476;2023-04-03T01:04:32;1.05;;;0.43;;
42478;SDS011;28110;47.080;9.476;2023-04-03T01:07:02;0.63;;;0.60;;
42478;SDS011;28110;47.080;9.476;2023-04-03T01:09:33;0.50;;;0.50;;
42478;SDS011;28110;47.080;9.476;2023-04-03T01:14:53;1.58;;;0.50;;
42478;SDS011;28110;47.080;9.476;2023-04-03T01:17:26;0.65;;;0.50;;
42478;SDS011;28110;47.080;9.476;2023-04-03T01:25:55;0.70;;;0.60;;
42478;SDS011;28110;47.080;9.476;2023-04-03T01:28:25;0.93;;;0.50;;
42478;SDS011;28110;47.080;9.476;2023-04-03T01:33:40;0.50;;;0.47;;
42478;SDS011;28110;47.080;9.476;2023-04-03T01:36:08;0.60;;;0.50;;
42478;SDS011;28110;47.080;9.476;2023-04-03T01:38:35;0.65;;;0.60;;
42478;SDS011;28110;47.080;9.476;2023-04-03T01:41:00;0.53;;;0.50;;
42478;SDS011;28110;47.080;9.476;2023-04-03T01:43:26;0.55;;;0.50;;
42478;SDS011;28110;47.080;9.476;2023-04-03T01:45:51;0.70;;;0.70;;
42478;SDS011;28110;47.080;9.476;2023-04-03T01:48:19;1.20;;;0.57;;
42478;SDS011;28110;47.080;9.476;2023-04-03T01:50:45;0.80;;;0.70;;
42478;SDS011;28110;47.080;9.476;2023-04-03T01:53:11;1.27;;;0.80;;
42478;SDS011;28110;47.080;9.476;2023-04-03T01:55:38;2.03;;;0.88;;
42478;SDS011;28110;47.080;9.476;2023-04-03T01:58:03;1.57;;;0.80;;
42478;SDS011;28110;47.080;9.476;2023-04-03T02:00:29;1.10;;;0.90;;
42478;SDS011;28110;47.080;9.476;2023-04-03T02:02:54;0.97;;;0.70;;
42478;SDS011;28110;47.080;9.476;2023-04-03T02:05:20;1.57;;;0.90;;
42478;SDS011;28110;47.080;9.476;2023-04-03T02:07:46;2.25;;;0.80;;
42478;SDS011;28110;47.080;9.476;2023-04-03T02:10:11;1.07;;;0.87;;
42478;SDS011;28110;47.080;9.476;2023-04-03T02:12:38;1.60;;;1.17;;
42478;SDS011;28110;47.080;9.476;2023-04-03T02:15:04;2.00;;;1.23;;
42478;SDS011;28110;47.080;9.476;2023-04-03T02:17:30;1.77;;;1.30;;
42478;SDS011;28110;47.080;9.476;2023-04-03T02:19:55;2.07;;;1.20;;
42478;SDS011;28110;47.080;9.476;2023-04-03T02:22:21;1.30;;;1.10;;
42478;SDS011;28110;47.080;9.476;2023-04-03T02:24:46;1.50;;;1.20;;
42478;SDS011;28110;47.080;9.476;2023-04-03T02:27:12;1.03;;;0.90;;
42478;SDS011;28110;47.080;9.476;2023-04-03T02:29:37;1.90;;;1.20;;
42478;SDS011;28110;47.080;9.476;2023-04-03T02:32:03;1.20;;;1.05;;
42478;SDS011;28110;47.080;9.476;2023-04-03T02:34:29;2.30;;;1.42;;
42478;SDS011;28110;47.080;9.476;2023-04-03T02:36:55;2.35;;;1.35;;
42478;SDS011;28110;47.080;9.476;2023-04-03T02:39:20;2.17;;;1.30;;
42478;SDS011;28110;47.080;9.476;2023-04-03T02:41:46;1.77;;;1.60;;
42478;SDS011;28110;47.080;9.476;2023-04-03T02:44:11;2.03;;;1.70;;
42478;SDS011;28110;47.080;9.476;2023-04-03T02:46:37;2.40;;;1.70;;
42478;SDS011;28110;47.080;9.476;2023-04-03T02:49:03;1.60;;;1.40;;
42478;SDS011;28110;47.080;9.476;2023-04-03T02:51:29;2.73;;;1.80;;
42478;SDS011;28110;47.080;9.476;2023-04-03T02:53:55;2.80;;;2.00;;
42478;SDS011;28110;47.080;9.476;2023-04-03T02:56:20;2.70;;;1.88;;
42478;SDS011;28110;47.080;9.476;2023-04-03T02:58:46;2.93;;;2.10;;
42478;SDS011;28110;47.080;9.476;2023-04-03T03:01:12;3.25;;;2.05;;
42478;SDS011;28110;47.080;9.476;2023-04-03T03:03:38;2.77;;;1.90;;
42478;SDS011;28110;47.080;9.476;2023-04-03T03:06:04;3.20;;;2.20;;
42478;SDS011;28110;47.080;9.476;2023-04-03T03:08:31;4.60;;;2.10;;
42478;SDS011;28110;47.080;9.476;2023-04-03T03:10:57;2.67;;;2.00;;
42478;SDS011;28110;47.080;9.476;2023-04-03T03:13:23;3.55;;;2.10;;
42478;SDS011;28110;47.080;9.476;2023-04-03T03:15:49;2.65;;;2.17;;
42478;SDS011;28110;47.080;9.476;2023-04-03T03:18:15;3.63;;;2.30;;
42478;SDS011;28110;47.080;9.476;2023-04-03T03:20:40;4.15;;;2.60;;
42478;SDS011;28110;47.080;9.476;2023-04-03T03:23:06;2.90;;;2.20;;
42478;SDS011;28110;47.080;9.476;2023-04-03T03:25:32;3.00;;;2.20;;
42478;SDS011;28110;47.080;9.476;2023-04-03T03:27:57;3.90;;;2.55;;
42478;SDS011;28110;47.080;9.476;2023-04-03T03:30:23;4.10;;;2.33;;
42478;SDS011;28110;47.080;9.476;2023-04-03T03:32:48;3.87;;;2.23;;
42478;SDS011;28110;47.080;9.476;2023-04-03T03:35:14;2.97;;;2.15;;
42478;SDS011;28110;47.080;9.476;2023-04-03T03:37:39;3.93;;;2.70;;
42478;SDS011;28110;47.080;9.476;2023-04-03T03:40:05;4.13;;;2.80;;
42478;SDS011;28110;47.080;9.476;2023-04-03T03:42:31;4.68;;;3.00;;
42478;SDS011;28110;47.080;9.476;2023-04-03T03:44:57;5.50;;;3.00;;
42478;SDS011;28110;47.080;9.476;2023-04-03T03:47:22;6.68;;;3.67;;
42478;SDS011;28110;47.080;9.476;2023-04-03T03:49:48;4.27;;;3.03;;
42478;SDS011;28110;47.080;9.476;2023-04-03T03:52:13;4.23;;;2.93;;
42478;SDS011;28110;47.080;9.476;2023-04-03T03:54:39;4.00;;;2.80;;
42478;SDS011;28110;47.080;9.476;2023-04-03T03:57:04;4.00;;;2.80;;
42478;SDS011;28110;47.080;9.476;2023-04-03T03:59:30;5.03;;;3.38;;
42478;SDS011;28110;47.080;9.476;2023-04-03T04:01:56;4.97;;;3.50;;
42478;SDS011;28110;47.080;9.476;2023-04-03T04:04:21;4.73;;;2.87;;
42478;SDS011;28110;47.080;9.476;2023-04-03T04:06:47;4.68;;;3.28;;
42478;SDS011;28110;47.080;9.476;2023-04-03T04:09:12;4.77;;;3.13;;
42478;SDS011;28110;47.080;9.476;2023-04-03T04:11:38;7.53;;;3.90;;
42478;SDS011;28110;47.080;9.476;2023-04-03T04:14:05;6.07;;;3.60;;
42478;SDS011;28110;47.080;9.476;2023-04-03T04:16:31;3.78;;;2.97;;
42478;SDS011;28110;47.080;9.476;2023-04-03T04:18:57;4.97;;;3.13;;
42478;SDS011;28110;47.080;9.476;2023-04-03T04:21:22;4.32;;;3.08;;
42478;SDS011;28110;47.080;9.476;2023-04-03T04:23:48;5.17;;;3.00;;
42478;SDS011;28110;47.080;9.476;2023-04-03T04:26:14;4.37;;;3.00;;
42478;SDS011;28110;47.080;9.476;2023-04-03T04:28:39;3.97;;;2.63;;
42478;SDS011;28110;47.080;9.476;2023-04-03T04:31:05;5.10;;;3.03;;
42478;SDS011;28110;47.080;9.476;2023-04-03T04:33:30;5.80;;;3.20;;
42478;SDS011;28110;47.080;9.476;2023-04-03T04:35:56;4.85;;;2.97;;
42478;SDS011;28110;47.080;9.476;2023-04-03T04:38:21;4.33;;;3.07;;
42478;SDS011;28110;47.080;9.476;2023-04-03T04:40:47;5.27;;;3.23;;
42478;SDS011;28110;47.080;9.476;2023-04-03T04:43:13;5.30;;;3.42;;
42478;SDS011;28110;47.080;9.476;2023-04-03T04:45:39;5.38;;;3.72;;
42478;SDS011;28110;47.080;9.476;2023-04-03T04:48:05;5.33;;;3.37;;
42478;SDS011;28110;47.080;9.476;2023-04-03T04:50:31;5.95;;;3.13;;
42478;SDS011;28110;47.080;9.476;2023-04-03T04:52:56;5.43;;;3.20;;
42478;SDS011;28110;47.080;9.476;2023-04-03T04:55:22;4.43;;;3.10;;
42478;SDS011;28110;47.080;9.476;2023-04-03T04:57:47;6.18;;;3.42;;
42478;SDS011;28110;47.080;9.476;2023-04-03T05:00:13;4.77;;;3.43;;
42478;SDS011;28110;47.080;9.476;2023-04-03T05:02:39;5.82;;;3.65;;
42478;SDS011;28110;47.080;9.476;2023-04-03T05:05:05;5.50;;;3.67;;
42478;SDS011;28110;47.080;9.476;2023-04-03T05:07:31;6.20;;;3.67;;
42478;SDS011;28110;47.080;9.476;2023-04-03T05:09:56;8.53;;;4.17;;
42478;SDS011;28110;47.080;9.476;2023-04-03T05:12:22;5.70;;;3.67;;
42478;SDS011;28110;47.080;9.476;2023-04-03T05:14:47;6.22;;;3.67;;
42478;SDS011;28110;47.080;9.476;2023-04-03T05:17:13;6.53;;;3.63;;
42478;SDS011;28110;47.080;9.476;2023-04-03T05:19:38;5.53;;;3.70;;
42478;SDS011;28110;47.080;9.476;2023-04-03T05:22:04;5.85;;;3.70;;
42478;SDS011;28110;47.080;9.476;2023-04-03T05:24:30;6.60;;;4.17;;
42478;SDS011;28110;47.080;9.476;2023-04-03T05:26:55;6.32;;;3.92;;
42478;SDS011;28110;47.080;9.476;2023-04-03T05:29:22;5.70;;;3.53;;
42478;SDS011;28110;47.080;9.476;2023-04-03T05:31:50;6.45;;;3.80;;
42478;SDS011;28110;47.080;9.476;2023-04-03T05:34:16;7.15;;;3.70;;
42478;SDS011;28110;47.080;9.476;2023-04-03T05:36:42;6.53;;;3.93;;
42478;SDS011;28110;47.080;9.476;2023-04-03T05:39:07;8.57;;;4.15;;
42478;SDS011;28110;47.080;9.476;2023-04-03T05:41:33;8.57;;;4.57;;
42478;SDS011;28110;47.080;9.476;2023-04-03T05:43:59;7.78;;;4.50;;
42478;SDS011;28110;47.080;9.476;2023-04-03T05:46:25;6.77;;;4.20;;
42478;SDS011;28110;47.080;9.476;2023-04-03T05:48:51;6.90;;;4.35;;
42478;SDS011;28110;47.080;9.476;2023-04-03T05:51:18;6.77;;;4.07;;
42478;SDS011;28110;47.080;9.476;2023-04-03T05:53:46;7.43;;;4.30;;
42478;SDS011;28110;47.080;9.476;2023-04-03T05:56:12;6.43;;;3.92;;
42478;SDS011;28110;47.080;9.476;2023-04-03T05:58:38;6.90;;;4.32;;
42478;SDS011;28110;47.080;9.476;2023-04-03T06:01:04;7.33;;;4.50;;
42478;SDS011;28110;47.080;9.476;2023-04-03T06:03:30;8.52;;;4.55;;
42478;SDS011;28110;47.080;9.476;2023-04-03T06:05:56;7.63;;;4.43;;
42478;SDS011;28110;47.080;9.476;2023-04-03T06:08:22;8.77;;;4.63;;
42478;SDS011;28110;47.080;9.476;2023-04-03T06:10:48;6.93;;;4.63;;
42478;SDS011;28110;47.080;9.476;2023-04-03T06:13:15;6.70;;;4.53;;
42478;SDS011;28110;47.080;9.476;2023-04-03T06:15:41;9.05;;;5.10;;
42478;SDS011;28110;47.080;9.476;2023-04-03T06:18:06;8.33;;;4.90;;
42478;SDS011;28110;47.080;9.476;2023-04-03T06:20:32;8.75;;;5.03;;
42478;SDS011;28110;47.080;9.476;2023-04-03T06:22:57;9.82;;;4.72;;
42478;SDS011;28110;47.080;9.476;2023-04-03T06:25:23;7.90;;;4.67;;
42478;SDS011;28110;47.080;9.476;2023-04-03T06:27:49;6.40;;;3.78;;
42478;SDS011;28110;47.080;9.476;2023-04-03T06:30:14;8.10;;;4.30;;
42478;SDS011;28110;47.080;9.476;2023-04-03T06:32:40;7.90;;;4.60;;
42478;SDS011;28110;47.080;9.476;2023-04-03T06:35:06;8.87;;;4.90;;
42478;SDS011;28110;47.080;9.476;2023-04-03T06:37:32;6.65;;;4.35;;
42478;SDS011;28110;47.080;9.476;2023-04-03T06:39:58;7.43;;;4.40;;
42478;SDS011;28110;47.080;9.476;2023-04-03T06:42:25;8.02;;;4.95;;
42478;SDS011;28110;47.080;9.476;2023-04-03T06:44:51;8.65;;;4.57;;
42478;SDS011;28110;47.080;9.476;2023-04-03T06:47:16;9.50;;;5.17;;
42478;SDS011;28110;47.080;9.476;2023-04-03T06:49:42;11.25;;;5.53;;
42478;SDS011;28110;47.080;9.476;2023-04-03T06:52:09;8.32;;;4.72;;
42478;SDS011;28110;47.080;9.476;2023-04-03T06:54:35;8.17;;;5.23;;
42478;SDS011;28110;47.080;9.476;2023-04-03T06:57:01;8.15;;;5.15;;
42478;SDS011;28110;47.080;9.476;2023-04-03T06:59:27;8.27;;;4.45;;
42478;SDS011;28110;47.080;9.476;2023-04-03T07:01:53;8.07;;;4.97;;
42478;SDS011;28110;47.080;9.476;2023-04-03T07:04:18;8.45;;;5.25;;
42478;SDS011;28110;47.080;9.476;2023-04-03T07:06:45;8.67;;;4.70;;
42478;SDS011;28110;47.080;9.476;2023-04-03T07:09:12;7.75;;;4.70;;
42478;SDS011;28110;47.080;9.476;2023-04-03T07:11:38;7.43;;;4.30;;
42478;SDS011;28110;47.080;9.476;2023-04-03T07:14:04;8.05;;;4.80;;
42478;SDS011;28110;47.080;9.476;2023-04-03T07:16:31;7.65;;;4.85;;
42478;SDS011;28110;47.080;9.476;2023-04-03T07:18:56;9.83;;;4.80;;
42478;SDS011;28110;47.080;9.476;2023-04-03T07:21:22;8.50;;;5.32;;
42478;SDS011;28110;47.080;9.476;2023-04-03T07:23:48;9.65;;;5.75;;
42478;SDS011;28110;47.080;9.476;2023-04-03T07:26:14;9.70;;;5.73;;
42478;SDS011;28110;47.080;9.476;2023-04-03T07:28:40;7.97;;;4.80;;
42478;SDS011;28110;47.080;9.476;2023-04-03T07:31:07;7.97;;;5.03;;
42478;SDS011;28110;47.080;9.476;2023-04-03T07:33:38;7.68;;;4.97;;
42478;SDS011;28110;47.080;9.476;2023-04-03T07:36:04;8.52;;;4.60;;
42478;SDS011;28110;47.080;9.476;2023-04-03T07:38:31;7.80;;;4.78;;
42478;SDS011;28110;47.080;9.476;2023-04-03T07:40:57;8.17;;;4.67;;
42478;SDS011;28110;47.080;9.476;2023-04-03T07:43:23;8.15;;;4.70;;
42478;SDS011;28110;47.080;9.476;2023-04-03T07:45:50;8.23;;;4.75;;
42478;SDS011;28110;47.080;9.476;2023-04-03T07:48:16;7.20;;;4.57;;
42478;SDS011;28110;47.080;9.476;2023-04-03T07:50:43;8.02;;;5.13;;
42478;SDS011;28110;47.080;9.476;2023-04-03T07:53:09;7.60;;;4.78;;
42478;SDS011;28110;47.080;9.476;2023-04-03T07:55:35;7.23;;;4.60;;
42478;SDS011;28110;47.080;9.476;2023-04-03T07:58:07;8.40;;;5.10;;
42478;SDS011;28110;47.080;9.476;2023-04-03T08:00:38;7.00;;;4.57;;
42478;SDS011;28110;47.080;9.476;2023-04-03T08:03:04;6.90;;;4.72;;
42478;SDS011;28110;47.080;9.476;2023-04-03T08:05:31;7.05;;;4.68;;
42478;SDS011;28110;47.080;9.476;2023-04-03T08:07:57;7.67;;;5.00;;
42478;SDS011;28110;47.080;9.476;2023-04-03T08:10:22;8.05;;;4.78;;
42478;SDS011;28110;47.080;9.476;2023-04-03T08:12:48;7.43;;;4.80;;
42478;SDS011;28110;47.080;9.476;2023-04-03T08:15:13;7.03;;;4.83;;
42478;SDS011;28110;47.080;9.476;2023-04-03T08:17:39;7.75;;;4.97;;
42478;SDS011;28110;47.080;9.476;2023-04-03T08:20:05;8.97;;;4.83;;
42478;SDS011;28110;47.080;9.476;2023-04-03T08:22:32;6.90;;;4.60;;
42478;SDS011;28110;47.080;9.476;2023-04-03T08:24:58;7.32;;;4.43;;
42478;SDS011;28110;47.080;9.476;2023-04-03T08:27:24;7.35;;;4.25;;
42478;SDS011;28110;47.080;9.476;2023-04-03T08:29:51;6.37;;;4.40;;
42478;SDS011;28110;47.080;9.476;2023-04-03T08:32:16;5.82;;;3.72;;
42478;SDS011;28110;47.080;9.476;2023-04-03T08:34:42;7.15;;;4.72;;
42478;SDS011;28110;47.080;9.476;2023-04-03T08:37:08;6.67;;;4.37;;
42478;SDS011;28110;47.080;9.476;2023-04-03T08:39:34;9.37;;;4.90;;
42478;SDS011;28110;47.080;9.476;2023-04-03T08:42:01;8.38;;;4.82;;
42478;SDS011;28110;47.080;9.476;2023-04-03T08:44:53;8.63;;;5.15;;
42478;SDS011;28110;47.080;9.476;2023-04-03T08:47:28;8.63;;;4.82;;
42478;SDS011;28110;47.080;9.476;2023-04-03T08:50:14;7.10;;;4.35;;
42478;SDS011;28110;47.080;9.476;2023-04-03T08:52:44;7.30;;;4.43;;
42478;SDS011;28110;47.080;9.476;2023-04-03T08:55:22;8.13;;;5.00;;
42478;SDS011;28110;47.080;9.476;2023-04-03T09:00:43;6.75;;;3.90;;
42478;SDS011;28110;47.080;9.476;2023-04-03T09:03:11;6.38;;;4.43;;
42478;SDS011;28110;47.080;9.476;2023-04-03T09:05:44;6.27;;;4.40;;
42478;SDS011;28110;47.080;9.476;2023-04-03T09:10:47;8.68;;;4.53;;
42478;SDS011;28110;47.080;9.476;2023-04-03T09:13:29;8.13;;;4.93;;
42478;SDS011;28110;47.080;9.476;2023-04-03T09:16:02;7.47;;;4.95;;
42478;SDS011;28110;47.080;9.476;2023-04-03T09:18:40;7.37;;;4.57;;
42478;SDS011;28110;47.080;9.476;2023-04-03T09:21:17;6.65;;;4.38;;
42478;SDS011;28110;47.080;9.476;2023-04-03T09:23:49;7.60;;;4.60;;
42478;SDS011;28110;47.080;9.476;2023-04-03T09:26:18;6.50;;;4.40;;
42478;SDS011;28110;47.080;9.476;2023-04-03T09:29:06;8.23;;;4.32;;
42478;SDS011;28110;47.080;9.476;2023-04-03T09:31:37;7.10;;;4.50;;
42478;SDS011;28110;47.080;9.476;2023-04-03T09:34:38;6.82;;;4.03;;
42478;SDS011;28110;47.080;9.476;2023-04-03T09:36:59;7.38;;;4.20;;
42478;SDS011;28110;47.080;9.476;2023-04-03T09:39:48;7.07;;;4.22;;
42478;SDS011;28110;47.080;9.476;2023-04-03T09:42:19;5.50;;;3.80;;
42478;SDS011;28110;47.080;9.476;2023-04-03T09:52:34;7.63;;;4.55;;
42478;SDS011;28110;47.080;9.476;2023-04-03T09:55:06;8.60;;;4.33;;
42478;SDS011;28110;47.080;9.476;2023-04-03T09:57:43;7.63;;;4.50;;
42478;SDS011;28110;47.080;9.476;2023-04-03T10:03:00;6.05;;;3.80;;
42478;SDS011;28110;47.080;9.476;2023-04-03T10:10:40;6.22;;;3.72;;
42478;SDS011;28110;47.080;9.476;2023-04-03T10:18:40;7.63;;;4.03;;
42478;SDS011;28110;47.080;9.476;2023-04-03T10:24:02;6.63;;;3.63;;
42478;SDS011;28110;47.080;9.476;2023-04-03T10:32:21;6.27;;;3.47;;
42478;SDS011;28110;47.080;9.476;2023-04-03T10:35:02;5.40;;;3.45;;
42478;SDS011;28110;47.080;9.476;2023-04-03T10:51:15;5.60;;;3.33;;
42478;SDS011;28110;47.080;9.476;2023-04-03T10:56:44;5.80;;;2.90;;
42478;SDS011;28110;47.080;9.476;2023-04-03T10:59:34;4.68;;;2.90;;
42478;SDS011;28110;47.080;9.476;2023-04-03T11:02:29;6.50;;;3.08;;
42478;SDS011;28110;47.080;9.476;2023-04-03T11:04:59;5.43;;;2.90;;
42478;SDS011;28110;47.080;9.476;2023-04-03T11:07:34;4.45;;;2.72;;
42478;SDS011;28110;47.080;9.476;2023-04-03T11:10:15;3.72;;;2.60;;
42478;SDS011;28110;47.080;9.476;2023-04-03T11:13:21;3.67;;;2.53;;
42478;SDS011;28110;47.080;9.476;2023-04-03T11:15:51;4.60;;;2.80;;
42478;SDS011;28110;47.080;9.476;2023-04-03T11:18:19;3.70;;;2.13;;
42478;SDS011;28110;47.080;9.476;2023-04-03T11:21:12;4.13;;;2.40;;
42478;SDS011;28110;47.080;9.476;2023-04-03T11:23:49;3.97;;;2.47;;
42478;SDS011;28110;47.080;9.476;2023-04-03T11:26:18;4.85;;;3.00;;
42478;SDS011;28110;47.080;9.476;2023-04-03T11:28:46;3.95;;;2.33;;
42478;SDS011;28110;47.080;9.476;2023-04-03T11:34:22;5.20;;;2.75;;
42478;SDS011;28110;47.080;9.476;2023-04-03T11:37:04;3.88;;;2.40;;
42478;SDS011;28110;47.080;9.476;2023-04-03T11:39:38;3.60;;;2.30;;
42478;SDS011;28110;47.080;9.476;2023-04-03T11:42:13;3.33;;;2.28;;
42478;SDS011;28110;47.080;9.476;2023-04-03T11:44:51;4.33;;;2.30;;
42478;SDS011;28110;47.080;9.476;2023-04-03T11:47:43;4.35;;;2.33;;
42478;SDS011;28110;47.080;9.476;2023-04-03T11:51:02;3.88;;;2.80;;
42478;SDS011;28110;47.080;9.476;2023-04-03T12:05:49;5.43;;;2.70;;
42478;SDS011;28110;47.080;9.476;2023-04-03T12:08:16;5.70;;;2.93;;
42478;SDS011;28110;47.080;9.476;2023-04-03T12:13:42;3.90;;;2.53;;
42478;SDS011;28110;47.080;9.476;2023-04-03T12:40:30;5.40;;;2.95;;
42478;SDS011;28110;47.080;9.476;2023-04-03T12:45:48;4.57;;;3.17;;
42478;SDS011;28110;47.080;9.476;2023-04-03T12:48:16;5.50;;;2.60;;
42478;SDS011;28110;47.080;9.476;2023-04-03T12:50:43;5.95;;;3.35;;
42478;SDS011;28110;47.080;9.476;2023-04-03T12:53:12;5.47;;;3.20;;
42478;SDS011;28110;47.080;9.476;2023-04-03T12:55:43;4.38;;;3.08;;
42478;SDS011;28110;47.080;9.476;2023-04-03T13:00:41;4.55;;;3.08;;
42478;SDS011;28110;47.080;9.476;2023-04-03T13:03:14;4.13;;;3.13;;
42478;SDS011;28110;47.080;9.476;2023-04-03T13:05:47;7.03;;;3.17;;
42478;SDS011;28110;47.080;9.476;2023-04-03T13:08:13;4.78;;;3.15;;
42478;SDS011;28110;47.080;9.476;2023-04-03T13:10:49;6.05;;;3.05;;
42478;SDS011;28110;47.080;9.476;2023-04-03T13:13:18;5.63;;;3.30;;
42478;SDS011;28110;47.080;9.476;2023-04-03T13:15:45;6.07;;;3.10;;
42478;SDS011;28110;47.080;9.476;2023-04-03T13:18:21;3.65;;;2.55;;
42478;SDS011;28110;47.080;9.476;2023-04-03T13:20:48;9.70;;;2.90;;
42478;SDS011;28110;47.080;9.476;2023-04-03T13:23:14;6.05;;;2.67;;
42478;SDS011;28110;47.080;9.476;2023-04-03T13:25:45;6.30;;;2.80;;
42478;SDS011;28110;47.080;9.476;2023-04-03T13:28:13;5.27;;;3.50;;
42478;SDS011;28110;47.080;9.476;2023-04-03T13:33:22;5.13;;;2.70;;
42478;SDS011;28110;47.080;9.476;2023-04-03T13:38:30;4.10;;;3.00;;
42478;SDS011;28110;47.080;9.476;2023-04-03T13:40:59;5.80;;;3.17;;
42478;SDS011;28110;47.080;9.476;2023-04-03T13:43:29;4.45;;;3.10;;
42478;SDS011;28110;47.080;9.476;2023-04-03T13:46:01;4.60;;;2.83;;
42478;SDS011;28110;47.080;9.476;2023-04-03T13:48:47;4.07;;;2.63;;
42478;SDS011;28110;47.080;9.476;2023-04-03T13:51:17;3.88;;;2.50;;
42478;SDS011;28110;47.080;9.476;2023-04-03T13:53:59;4.43;;;2.93;;
42478;SDS011;28110;47.080;9.476;2023-04-03T13:56:35;5.07;;;2.92;;
42478;SDS011;28110;47.080;9.476;2023-04-03T13:59:23;5.80;;;3.03;;
42478;SDS011;28110;47.080;9.476;2023-04-03T14:04:30;6.32;;;3.20;;
42478;SDS011;28110;47.080;9.476;2023-04-03T14:06:56;8.33;;;3.07;;
42478;SDS011;28110;47.080;9.476;2023-04-03T14:09:23;3.38;;;2.55;;
42478;SDS011;28110;47.080;9.476;2023-04-03T14:11:57;4.53;;;2.90;;
42478;SDS011;28110;47.080;9.476;2023-04-03T14:14:30;5.50;;;2.80;;
42478;SDS011;28110;47.080;9.476;2023-04-03T14:16:58;4.07;;;2.80;;
42478;SDS011;28110;47.080;9.476;2023-04-03T14:19:27;4.00;;;2.57;;
42478;SDS011;28110;47.080;9.476;2023-04-03T14:21:55;4.25;;;2.50;;
42478;SDS011;28110;47.080;9.476;2023-04-03T14:24:21;4.43;;;2.95;;
42478;SDS011;28110;47.080;9.476;2023-04-03T14:26:48;5.22;;;2.78;;
42478;SDS011;28110;47.080;9.476;2023-04-03T14:29:16;3.00;;;2.25;;
42478;SDS011;28110;47.080;9.476;2023-04-03T14:31:42;3.73;;;2.77;;
42478;SDS011;28110;47.080;9.476;2023-04-03T14:34:10;4.85;;;2.42;;
42478;SDS011;28110;47.080;9.476;2023-04-03T14:36:37;4.13;;;2.90;;
42478;SDS011;28110;47.080;9.476;2023-04-03T14:39:04;4.83;;;2.50;;
42478;SDS011;28110;47.080;9.476;2023-04-03T14:41:31;6.22;;;2.30;;
42478;SDS011;28110;47.080;9.476;2023-04-03T14:43:57;4.10;;;2.92;;
42478;SDS011;28110;47.080;9.476;2023-04-03T14:46:26;2.90;;;2.40;;
42478;SDS011;28110;47.080;9.476;2023-04-03T14:48:56;3.05;;;2.50;;
42478;SDS011;28110;47.080;9.476;2023-04-03T14:51:22;4.80;;;2.50;;
42478;SDS011;28110;47.080;9.476;2023-04-03T14:53:48;3.55;;;2.47;;
42478;SDS011;28110;47.080;9.476;2023-04-03T14:56:16;3.50;;;2.10;;
42478;SDS011;28110;47.080;9.476;2023-04-03T14:58:47;4.65;;;2.47;;
42478;SDS011;28110;47.080;9.476;2023-04-03T15:01:15;4.67;;;2.40;;
42478;SDS011;28110;47.080;9.476;2023-04-03T15:03:42;4.03;;;2.38;;
42478;SDS011;28110;47.080;9.476;2023-04-03T15:06:13;7.05;;;2.30;;
42478;SDS011;28110;47.080;9.476;2023-04-03T15:08:40;4.40;;;2.28;;
42478;SDS011;28110;47.080;9.476;2023-04-03T15:11:07;3.75;;;2.35;;
42478;SDS011;28110;47.080;9.476;2023-04-03T15:13:34;4.00;;;2.47;;
42478;SDS011;28110;47.080;9.476;2023-04-03T15:16:00;3.35;;;2.38;;
42478;SDS011;28110;47.080;9.476;2023-04-03T15:18:27;2.92;;;2.30;;
42478;SDS011;28110;47.080;9.476;2023-04-03T15:20:55;2.90;;;2.20;;
42478;SDS011;28110;47.080;9.476;2023-04-03T15:23:20;5.47;;;2.70;;
42478;SDS011;28110;47.080;9.476;2023-04-03T15:25:51;5.10;;;2.50;;
42478;SDS011;28110;47.080;9.476;2023-04-03T15:28:18;3.37;;;2.30;;
42478;SDS011;28110;47.080;9.476;2023-04-03T15:30:50;4.20;;;2.13;;
42478;SDS011;28110;47.080;9.476;2023-04-03T15:33:15;3.45;;;2.42;;
42478;SDS011;28110;47.080;9.476;2023-04-03T15:35:41;3.17;;;2.30;;
42478;SDS011;28110;47.080;9.476;2023-04-03T15:38:08;5.25;;;2.42;;
42478;SDS011;28110;47.080;9.476;2023-04-03T15:40:34;5.78;;;2.90;;
42478;SDS011;28110;47.080;9.476;2023-04-03T15:43:00;3.73;;;2.50;;
42478;SDS011;28110;47.080;9.476;2023-04-03T15:45:27;6.17;;;3.67;;
42478;SDS011;28110;47.080;9.476;2023-04-03T15:47:54;3.78;;;2.60;;
42478;SDS011;28110;47.080;9.476;2023-04-03T15:50:20;4.13;;;2.50;;
42478;SDS011;28110;47.080;9.476;2023-04-03T15:52:47;5.63;;;3.15;;
42478;SDS011;28110;47.080;9.476;2023-04-03T15:55:16;6.70;;;2.60;;
42478;SDS011;28110;47.080;9.476;2023-04-03T15:57:41;5.30;;;2.50;;
42478;SDS011;28110;47.080;9.476;2023-04-03T16:00:07;5.95;;;2.58;;
42478;SDS011;28110;47.080;9.476;2023-04-03T16:02:33;3.58;;;2.45;;
42478;SDS011;28110;47.080;9.476;2023-04-03T16:04:59;3.47;;;2.60;;
42478;SDS011;28110;47.080;9.476;2023-04-03T16:07:24;4.30;;;2.57;;
42478;SDS011;28110;47.080;9.476;2023-04-03T16:09:51;4.13;;;2.22;;
42478;SDS011;28110;47.080;9.476;2023-04-03T16:12:17;5.07;;;2.50;;
42478;SDS011;28110;47.080;9.476;2023-04-03T16:14:42;5.47;;;2.57;;
42478;SDS011;28110;47.080;9.476;2023-04-03T16:17:08;5.25;;;2.55;;
42478;SDS011;28110;47.080;9.476;2023-04-03T16:19:33;4.03;;;2.20;;
42478;SDS011;28110;47.080;9.476;2023-04-03T16:21:59;3.42;;;2.47;;
42478;SDS011;28110;47.080;9.476;2023-04-03T16:24:25;4.60;;;2.30;;
42478;SDS011;28110;47.080;9.476;2023-04-03T16:26:50;5.33;;;2.77;;
42478;SDS011;28110;47.080;9.476;2023-04-03T16:29:18;7.32;;;3.10;;
42478;SDS011;28110;47.080;9.476;2023-04-03T16:31:43;6.95;;;2.97;;
42478;SDS011;28110;47.080;9.476;2023-04-03T16:34:09;5.78;;;2.63;;
42478;SDS011;28110;47.080;9.476;2023-04-03T16:36:35;4.47;;;2.72;;
42478;SDS011;28110;47.080;9.476;2023-04-03T16:39:02;4.85;;;2.80;;
42478;SDS011;28110;47.080;9.476;2023-04-03T16:41:28;4.57;;;2.73;;
42478;SDS011;28110;47.080;9.476;2023-04-03T16:43:53;4.93;;;3.08;;
42478;SDS011;28110;47.080;9.476;2023-04-03T16:46:19;4.60;;;3.20;;
42478;SDS011;28110;47.080;9.476;2023-04-03T16:48:45;4.03;;;2.85;;
42478;SDS011;28110;47.080;9.476;2023-04-03T16:51:11;3.00;;;2.30;;
42478;SDS011;28110;47.080;9.476;2023-04-03T16:53:37;4.53;;;2.88;;
42478;SDS011;28110;47.080;9.476;2023-04-03T16:56:03;5.33;;;2.90;;